sensor_id;sensor_type;location;lat;lon;timestamp;P1;durP1;ratioP1;P2;durP2;ratioP2
52015;SDS011;38032;53.326;6.472;2023-02-01T00:01:28;28.58;;;5.38;;
52015;SDS011;38032;53.326;6.472;2023-02-01T00:03:55;24.58;;;5.90;;
52015;SDS011;38032;53.326;6.472;2023-02-01T00:06:20;23.40;;;5.32;;
52015;SDS011;38032;53.326;6.472;2023-02-01T00:08:46;26.75;;;5.95;;
52015;SDS011;38032;53.326;6.472;2023-02-01T00:11:12;28.52;;;6.05;;
52015;SDS011;38032;53.326;6.472;2023-02-01T00:13:40;24.23;;;5.05;;
52015;SDS011;38032;53.326;6.472;2023-02-01T00:16:07;22.63;;;4.97;;
52015;SDS011;38032;53.326;6.472;2023-02-01T00:18:34;25.23;;;5.10;;
52015;SDS011;38032;53.326;6.472;2023-02-01T00:21:00;22.55;;;5.50;;
52015;SDS011;38032;53.326;6.472;2023-02-01T00:23:26;31.52;;;5.55;;
52015;SDS011;38032;53.326;6.472;2023-02-01T00:25:52;22.70;;;5.22;;
52015;SDS011;38032;53.326;6.472;2023-02-01T00:28:18;28.55;;;6.00;;
52015;SDS011;38032;53.326;6.472;2023-02-01T00:30:44;20.27;;;4.85;;
52015;SDS011;38032;53.326;6.472;2023-02-01T00:33:10;23.38;;;5.35;;
52015;SDS011;38032;53.326;6.472;2023-02-01T00:35:36;28.23;;;4.82;;
52015;SDS011;38032;53.326;6.472;2023-02-01T00:38:02;21.38;;;4.90;;
52015;SDS011;38032;53.326;6.472;2023-02-01T00:40:28;17.58;;;4.53;;
52015;SDS011;38032;53.326;6.472;2023-02-01T00:42:53;29.10;;;5.60;;
52015;SDS011;38032;53.326;6.472;2023-02-01T00:45:19;17.25;;;4.90;;
52015;SDS011;38032;53.326;6.472;2023-02-01T00:47:45;18.13;;;4.78;;
52015;SDS011;38032;53.326;6.472;2023-02-01T00:50:11;28.63;;;6.30;;
52015;SDS011;38032;53.326;6.472;2023-02-01T00:52:37;22.90;;;5.75;;
52015;SDS011;38032;53.326;6.472;2023-02-01T00:55:03;22.80;;;5.60;;
52015;SDS011;38032;53.326;6.472;2023-02-01T00:57:29;27.73;;;5.72;;
52015;SDS011;38032;53.326;6.472;2023-02-01T00:59:55;24.05;;;5.20;;
52015;SDS011;38032;53.326;6.472;2023-02-01T01:02:21;23.85;;;4.78;;
52015;SDS011;38032;53.326;6.472;2023-02-01T01:04:47;18.30;;;4.88;;
52015;SDS011;38032;53.326;6.472;2023-02-01T01:07:13;21.77;;;6.32;;
52015;SDS011;38032;53.326;6.472;2023-02-01T01:09:39;20.90;;;4.63;;
52015;SDS011;38032;53.326;6.472;2023-02-01T01:12:04;23.95;;;5.47;;
52015;SDS011;38032;53.326;6.472;2023-02-01T01:14:31;23.98;;;5.10;;
52015;SDS011;38032;53.326;6.472;2023-02-01T01:16:57;17.30;;;4.97;;
52015;SDS011;38032;53.326;6.472;2023-02-01T01:19:23;20.35;;;4.93;;
52015;SDS011;38032;53.326;6.472;2023-02-01T01:21:49;22.65;;;4.43;;
52015;SDS011;38032;53.326;6.472;2023-02-01T01:24:15;22.60;;;5.25;;
52015;SDS011;38032;53.326;6.472;2023-02-01T01:26:41;22.70;;;5.18;;
52015;SDS011;38032;53.326;6.472;2023-02-01T01:29:08;21.05;;;5.13;;
52015;SDS011;38032;53.326;6.472;2023-02-01T01:31:35;20.55;;;5.28;;
52015;SDS011;38032;53.326;6.472;2023-02-01T01:34:01;23.38;;;5.00;;
52015;SDS011;38032;53.326;6.472;2023-02-01T01:36:27;23.65;;;5.47;;
52015;SDS011;38032;53.326;6.472;2023-02-01T01:38:54;22.05;;;4.55;;
52015;SDS011;38032;53.326;6.472;2023-02-01T01:41:22;21.23;;;4.70;;
52015;SDS011;38032;53.326;6.472;2023-02-01T01:43:51;23.63;;;5.60;;
52015;SDS011;38032;53.326;6.472;2023-02-01T01:48:54;21.15;;;5.30;;
52015;SDS011;38032;53.326;6.472;2023-02-01T01:51:25;30.88;;;6.45;;
52015;SDS011;38032;53.326;6.472;2023-02-01T01:53:55;26.80;;;6.35;;
52015;SDS011;38032;53.326;6.472;2023-02-01T01:56:27;26.80;;;4.80;;
52015;SDS011;38032;53.326;6.472;2023-02-01T01:58:55;22.85;;;5.50;;
52015;SDS011;38032;53.326;6.472;2023-02-01T02:01:22;24.98;;;5.60;;
52015;SDS011;38032;53.326;6.472;2023-02-01T02:03:48;25.67;;;5.40;;
52015;SDS011;38032;53.326;6.472;2023-02-01T02:06:16;25.05;;;5.72;;
52015;SDS011;38032;53.326;6.472;2023-02-01T02:08:56;20.27;;;5.05;;
52015;SDS011;38032;53.326;6.472;2023-02-01T02:11:22;18.88;;;4.95;;
52015;SDS011;38032;53.326;6.472;2023-02-01T02:13:48;24.33;;;5.40;;
52015;SDS011;38032;53.326;6.472;2023-02-01T02:16:28;21.25;;;5.30;;
52015;SDS011;38032;53.326;6.472;2023-02-01T02:19:32;24.33;;;5.40;;
52015;SDS011;38032;53.326;6.472;2023-02-01T02:22:22;17.83;;;4.72;;
52015;SDS011;38032;53.326;6.472;2023-02-01T02:25:16;24.13;;;4.82;;
52015;SDS011;38032;53.326;6.472;2023-02-01T02:30:53;20.63;;;5.45;;
52015;SDS011;38032;53.326;6.472;2023-02-01T02:36:30;20.05;;;4.40;;
52015;SDS011;38032;53.326;6.472;2023-02-01T02:39:05;24.13;;;4.95;;
52015;SDS011;38032;53.326;6.472;2023-02-01T02:42:04;25.92;;;5.35;;
52015;SDS011;38032;53.326;6.472;2023-02-01T02:45:23;24.00;;;5.63;;
52015;SDS011;38032;53.326;6.472;2023-02-01T02:48:20;25.50;;;5.47;;
52015;SDS011;38032;53.326;6.472;2023-02-01T02:50:58;25.60;;;4.90;;
52015;SDS011;38032;53.326;6.472;2023-02-01T02:53:57;29.38;;;5.65;;
52015;SDS011;38032;53.326;6.472;2023-02-01T02:56:46;27.55;;;5.10;;
52015;SDS011;38032;53.326;6.472;2023-02-01T02:59:32;24.52;;;5.20;;
52015;SDS011;38032;53.326;6.472;2023-02-01T03:02:17;24.58;;;6.10;;
52015;SDS011;38032;53.326;6.472;2023-02-01T03:05:03;20.88;;;4.70;;
52015;SDS011;38032;53.326;6.472;2023-02-01T03:13:08;21.05;;;5.63;;
52015;SDS011;38032;53.326;6.472;2023-02-01T03:15:43;30.05;;;5.13;;
52015;SDS011;38032;53.326;6.472;2023-02-01T03:18:20;19.65;;;5.10;;
52015;SDS011;38032;53.326;6.472;2023-02-01T03:20:53;15.48;;;4.95;;
52015;SDS011;38032;53.326;6.472;2023-02-01T03:23:22;20.73;;;4.93;;
52015;SDS011;38032;53.326;6.472;2023-02-01T03:25:51;25.73;;;5.13;;
52015;SDS011;38032;53.326;6.472;2023-02-01T03:28:20;18.60;;;4.65;;
52015;SDS011;38032;53.326;6.472;2023-02-01T03:30:49;20.52;;;5.25;;
52015;SDS011;38032;53.326;6.472;2023-02-01T03:33:17;29.48;;;5.88;;
52015;SDS011;38032;53.326;6.472;2023-02-01T03:35:50;21.67;;;5.38;;
52015;SDS011;38032;53.326;6.472;2023-02-01T03:38:38;30.08;;;6.03;;
52015;SDS011;38032;53.326;6.472;2023-02-01T03:41:17;27.35;;;5.55;;
52015;SDS011;38032;53.326;6.472;2023-02-01T03:43:53;19.48;;;4.60;;
52015;SDS011;38032;53.326;6.472;2023-02-01T03:46:24;21.35;;;5.22;;
52015;SDS011;38032;53.326;6.472;2023-02-01T03:48:59;26.27;;;5.10;;
52015;SDS011;38032;53.326;6.472;2023-02-01T03:51:28;22.27;;;5.47;;
52015;SDS011;38032;53.326;6.472;2023-02-01T03:53:56;22.13;;;5.20;;
52015;SDS011;38032;53.326;6.472;2023-02-01T03:56:23;24.33;;;5.68;;
52015;SDS011;38032;53.326;6.472;2023-02-01T03:58:52;23.38;;;5.30;;
52015;SDS011;38032;53.326;6.472;2023-02-01T04:01:25;24.05;;;5.40;;
52015;SDS011;38032;53.326;6.472;2023-02-01T04:03:52;24.55;;;5.95;;
52015;SDS011;38032;53.326;6.472;2023-02-01T04:06:18;27.48;;;7.03;;
52015;SDS011;38032;53.326;6.472;2023-02-01T04:08:44;22.35;;;4.75;;
52015;SDS011;38032;53.326;6.472;2023-02-01T04:11:10;22.98;;;5.55;;
52015;SDS011;38032;53.326;6.472;2023-02-01T04:13:36;28.45;;;6.00;;
52015;SDS011;38032;53.326;6.472;2023-02-01T04:16:02;29.50;;;5.88;;
52015;SDS011;38032;53.326;6.472;2023-02-01T04:18:28;25.77;;;5.63;;
52015;SDS011;38032;53.326;6.472;2023-02-01T04:20:54;27.10;;;5.22;;
52015;SDS011;38032;53.326;6.472;2023-02-01T04:23:20;24.23;;;5.95;;
52015;SDS011;38032;53.326;6.472;2023-02-01T04:25:45;23.73;;;4.63;;
52015;SDS011;38032;53.326;6.472;2023-02-01T04:28:11;23.20;;;5.85;;
52015;SDS011;38032;53.326;6.472;2023-02-01T04:30:37;26.88;;;5.93;;
52015;SDS011;38032;53.326;6.472;2023-02-01T04:33:03;21.60;;;5.13;;
52015;SDS011;38032;53.326;6.472;2023-02-01T04:35:30;26.33;;;5.63;;
52015;SDS011;38032;53.326;6.472;2023-02-01T04:37:57;19.60;;;5.18;;
52015;SDS011;38032;53.326;6.472;2023-02-01T04:40:23;26.08;;;6.30;;
52015;SDS011;38032;53.326;6.472;2023-02-01T04:42:48;25.33;;;5.60;;
52015;SDS011;38032;53.326;6.472;2023-02-01T04:45:14;25.13;;;6.00;;
52015;SDS011;38032;53.326;6.472;2023-02-01T04:47:40;20.10;;;4.65;;
52015;SDS011;38032;53.326;6.472;2023-02-01T04:50:06;27.85;;;5.88;;
52015;SDS011;38032;53.326;6.472;2023-02-01T04:52:35;21.65;;;5.35;;
52015;SDS011;38032;53.326;6.472;2023-02-01T04:55:02;24.95;;;5.05;;
52015;SDS011;38032;53.326;6.472;2023-02-01T04:57:29;23.70;;;5.13;;
52015;SDS011;38032;53.326;6.472;2023-02-01T04:59:55;26.42;;;5.88;;
52015;SDS011;38032;53.326;6.472;2023-02-01T05:02:20;21.75;;;4.78;;
52015;SDS011;38032;53.326;6.472;2023-02-01T05:04:46;25.17;;;5.00;;
52015;SDS011;38032;53.326;6.472;2023-02-01T05:07:12;20.58;;;5.38;;
52015;SDS011;38032;53.326;6.472;2023-02-01T05:09:38;22.67;;;5.10;;
52015;SDS011;38032;53.326;6.472;2023-02-01T05:12:04;16.67;;;4.72;;
52015;SDS011;38032;53.326;6.472;2023-02-01T05:14:48;18.50;;;5.20;;
52015;SDS011;38032;53.326;6.472;2023-02-01T05:17:14;18.80;;;5.20;;
52015;SDS011;38032;53.326;6.472;2023-02-01T05:19:40;26.40;;;5.63;;
52015;SDS011;38032;53.326;6.472;2023-02-01T05:22:06;21.17;;;5.43;;
52015;SDS011;38032;53.326;6.472;2023-02-01T05:24:32;26.40;;;5.10;;
52015;SDS011;38032;53.326;6.472;2023-02-01T05:26:58;17.30;;;5.20;;
52015;SDS011;38032;53.326;6.472;2023-02-01T05:29:23;26.02;;;5.75;;
52015;SDS011;38032;53.326;6.472;2023-02-01T05:31:49;24.13;;;5.25;;
52015;SDS011;38032;53.326;6.472;2023-02-01T05:34:15;21.45;;;5.50;;
52015;SDS011;38032;53.326;6.472;2023-02-01T05:36:41;25.90;;;4.97;;
52015;SDS011;38032;53.326;6.472;2023-02-01T05:39:08;26.77;;;5.72;;
52015;SDS011;38032;53.326;6.472;2023-02-01T05:41:35;24.35;;;5.30;;
52015;SDS011;38032;53.326;6.472;2023-02-01T05:44:01;23.83;;;5.53;;
52015;SDS011;38032;53.326;6.472;2023-02-01T05:46:28;19.52;;;5.18;;
52015;SDS011;38032;53.326;6.472;2023-02-01T05:48:53;22.65;;;5.30;;
52015;SDS011;38032;53.326;6.472;2023-02-01T05:51:19;21.20;;;5.07;;
52015;SDS011;38032;53.326;6.472;2023-02-01T05:53:45;22.23;;;5.30;;
52015;SDS011;38032;53.326;6.472;2023-02-01T05:56:11;24.95;;;5.60;;
52015;SDS011;38032;53.326;6.472;2023-02-01T05:58:37;22.67;;;4.68;;
52015;SDS011;38032;53.326;6.472;2023-02-01T06:01:03;18.55;;;4.65;;
52015;SDS011;38032;53.326;6.472;2023-02-01T06:03:29;27.23;;;5.53;;
52015;SDS011;38032;53.326;6.472;2023-02-01T06:05:55;21.02;;;5.25;;
52015;SDS011;38032;53.326;6.472;2023-02-01T06:08:21;24.92;;;6.70;;
52015;SDS011;38032;53.326;6.472;2023-02-01T06:10:49;26.80;;;5.35;;
52015;SDS011;38032;53.326;6.472;2023-02-01T06:13:15;24.80;;;5.65;;
52015;SDS011;38032;53.326;6.472;2023-02-01T06:15:41;26.77;;;5.03;;
52015;SDS011;38032;53.326;6.472;2023-02-01T06:18:09;23.73;;;5.57;;
52015;SDS011;38032;53.326;6.472;2023-02-01T06:20:34;24.75;;;5.38;;
52015;SDS011;38032;53.326;6.472;2023-02-01T06:23:00;21.42;;;5.20;;
52015;SDS011;38032;53.326;6.472;2023-02-01T06:25:26;25.75;;;5.38;;
52015;SDS011;38032;53.326;6.472;2023-02-01T06:27:52;21.80;;;4.88;;
52015;SDS011;38032;53.326;6.472;2023-02-01T06:30:18;20.58;;;5.43;;
52015;SDS011;38032;53.326;6.472;2023-02-01T06:32:44;29.13;;;5.88;;
52015;SDS011;38032;53.326;6.472;2023-02-01T06:35:15;22.83;;;5.72;;
52015;SDS011;38032;53.326;6.472;2023-02-01T06:37:41;28.98;;;5.47;;
52015;SDS011;38032;53.326;6.472;2023-02-01T06:40:07;25.42;;;6.07;;
52015;SDS011;38032;53.326;6.472;2023-02-01T06:42:34;24.52;;;5.05;;
52015;SDS011;38032;53.326;6.472;2023-02-01T06:44:59;23.40;;;5.38;;
52015;SDS011;38032;53.326;6.472;2023-02-01T06:47:25;29.75;;;5.43;;
52015;SDS011;38032;53.326;6.472;2023-02-01T06:49:51;22.08;;;5.47;;
52015;SDS011;38032;53.326;6.472;2023-02-01T06:52:17;22.70;;;4.60;;
52015;SDS011;38032;53.326;6.472;2023-02-01T06:54:43;23.15;;;6.10;;
52015;SDS011;38032;53.326;6.472;2023-02-01T06:57:09;28.73;;;5.25;;
52015;SDS011;38032;53.326;6.472;2023-02-01T06:59:35;29.40;;;5.65;;
52015;SDS011;38032;53.326;6.472;2023-02-01T07:02:00;22.40;;;4.78;;
52015;SDS011;38032;53.326;6.472;2023-02-01T07:04:26;23.70;;;4.78;;
52015;SDS011;38032;53.326;6.472;2023-02-01T07:06:52;20.08;;;5.20;;
52015;SDS011;38032;53.326;6.472;2023-02-01T07:09:18;22.77;;;5.22;;
52015;SDS011;38032;53.326;6.472;2023-02-01T07:11:44;20.67;;;4.38;;
52015;SDS011;38032;53.326;6.472;2023-02-01T07:14:10;18.73;;;4.03;;
52015;SDS011;38032;53.326;6.472;2023-02-01T07:16:36;30.52;;;5.57;;
52015;SDS011;38032;53.326;6.472;2023-02-01T07:19:02;18.52;;;4.80;;
52015;SDS011;38032;53.326;6.472;2023-02-01T07:21:28;24.63;;;5.38;;
52015;SDS011;38032;53.326;6.472;2023-02-01T07:23:54;23.08;;;5.45;;
52015;SDS011;38032;53.326;6.472;2023-02-01T07:26:20;25.00;;;5.30;;
52015;SDS011;38032;53.326;6.472;2023-02-01T07:28:46;22.98;;;4.95;;
52015;SDS011;38032;53.326;6.472;2023-02-01T07:31:13;21.52;;;5.55;;
52015;SDS011;38032;53.326;6.472;2023-02-01T07:33:43;23.02;;;5.22;;
52015;SDS011;38032;53.326;6.472;2023-02-01T07:36:11;19.80;;;5.40;;
52015;SDS011;38032;53.326;6.472;2023-02-01T07:38:38;23.58;;;5.85;;
52015;SDS011;38032;53.326;6.472;2023-02-01T07:41:04;27.10;;;5.03;;
52015;SDS011;38032;53.326;6.472;2023-02-01T07:43:31;24.17;;;5.68;;
52015;SDS011;38032;53.326;6.472;2023-02-01T07:45:59;19.77;;;5.57;;
52015;SDS011;38032;53.326;6.472;2023-02-01T07:48:25;21.05;;;4.55;;
52015;SDS011;38032;53.326;6.472;2023-02-01T07:51:00;21.70;;;5.15;;
52015;SDS011;38032;53.326;6.472;2023-02-01T07:53:29;23.10;;;4.75;;
52015;SDS011;38032;53.326;6.472;2023-02-01T07:55:57;24.38;;;4.75;;
52015;SDS011;38032;53.326;6.472;2023-02-01T07:58:23;24.60;;;5.35;;
52015;SDS011;38032;53.326;6.472;2023-02-01T08:00:50;24.13;;;5.45;;
52015;SDS011;38032;53.326;6.472;2023-02-01T08:03:34;29.48;;;5.60;;
52015;SDS011;38032;53.326;6.472;2023-02-01T08:06:00;26.75;;;5.60;;
52015;SDS011;38032;53.326;6.472;2023-02-01T08:08:26;23.65;;;5.30;;
52015;SDS011;38032;53.326;6.472;2023-02-01T08:10:56;22.70;;;5.32;;
52015;SDS011;38032;53.326;6.472;2023-02-01T08:13:24;24.17;;;4.95;;
52015;SDS011;38032;53.326;6.472;2023-02-01T08:15:50;21.83;;;5.28;;
52015;SDS011;38032;53.326;6.472;2023-02-01T08:18:16;21.08;;;4.72;;
52015;SDS011;38032;53.326;6.472;2023-02-01T08:20:43;18.42;;;4.38;;
52015;SDS011;38032;53.326;6.472;2023-02-01T08:23:11;22.80;;;5.15;;
52015;SDS011;38032;53.326;6.472;2023-02-01T08:25:37;18.55;;;4.97;;
52015;SDS011;38032;53.326;6.472;2023-02-01T08:28:04;15.20;;;4.38;;
52015;SDS011;38032;53.326;6.472;2023-02-01T08:30:31;25.42;;;5.40;;
52015;SDS011;38032;53.326;6.472;2023-02-01T08:32:57;22.50;;;5.25;;
52015;SDS011;38032;53.326;6.472;2023-02-01T08:35:23;16.63;;;4.63;;
52015;SDS011;38032;53.326;6.472;2023-02-01T08:37:49;21.67;;;4.97;;
52015;SDS011;38032;53.326;6.472;2023-02-01T08:40:16;20.05;;;5.32;;
52015;SDS011;38032;53.326;6.472;2023-02-01T08:42:42;25.45;;;5.47;;
52015;SDS011;38032;53.326;6.472;2023-02-01T08:45:15;19.40;;;4.57;;
52015;SDS011;38032;53.326;6.472;2023-02-01T08:47:43;16.80;;;4.95;;
52015;SDS011;38032;53.326;6.472;2023-02-01T08:50:10;24.98;;;5.53;;
52015;SDS011;38032;53.326;6.472;2023-02-01T08:52:36;20.20;;;4.60;;
52015;SDS011;38032;53.326;6.472;2023-02-01T08:55:02;23.08;;;5.40;;
52015;SDS011;38032;53.326;6.472;2023-02-01T08:57:27;20.00;;;4.95;;
52015;SDS011;38032;53.326;6.472;2023-02-01T08:59:53;19.85;;;4.38;;
52015;SDS011;38032;53.326;6.472;2023-02-01T09:02:19;25.58;;;5.50;;
52015;SDS011;38032;53.326;6.472;2023-02-01T09:04:45;23.05;;;4.93;;
52015;SDS011;38032;53.326;6.472;2023-02-01T09:07:11;21.05;;;4.60;;
52015;SDS011;38032;53.326;6.472;2023-02-01T09:09:38;25.52;;;5.88;;
52015;SDS011;38032;53.326;6.472;2023-02-01T09:12:04;21.23;;;4.55;;
52015;SDS011;38032;53.326;6.472;2023-02-01T09:14:30;21.75;;;4.53;;
52015;SDS011;38032;53.326;6.472;2023-02-01T09:16:56;17.55;;;4.38;;
52015;SDS011;38032;53.326;6.472;2023-02-01T09:19:22;20.63;;;4.35;;
52015;SDS011;38032;53.326;6.472;2023-02-01T09:21:48;19.35;;;4.00;;
52015;SDS011;38032;53.326;6.472;2023-02-01T09:24:14;15.15;;;4.22;;
52015;SDS011;38032;53.326;6.472;2023-02-01T09:26:40;18.10;;;4.57;;
52015;SDS011;38032;53.326;6.472;2023-02-01T09:29:06;19.30;;;4.32;;
52015;SDS011;38032;53.326;6.472;2023-02-01T09:31:35;24.42;;;4.50;;
52015;SDS011;38032;53.326;6.472;2023-02-01T09:34:02;22.13;;;5.10;;
52015;SDS011;38032;53.326;6.472;2023-02-01T09:36:29;18.95;;;4.28;;
52015;SDS011;38032;53.326;6.472;2023-02-01T09:38:55;17.90;;;4.47;;
52015;SDS011;38032;53.326;6.472;2023-02-01T09:46:36;20.75;;;4.50;;
52015;SDS011;38032;53.326;6.472;2023-02-01T09:49:04;18.27;;;3.97;;
52015;SDS011;38032;53.326;6.472;2023-02-01T09:51:38;21.17;;;4.70;;
52015;SDS011;38032;53.326;6.472;2023-02-01T09:54:12;18.92;;;4.70;;
52015;SDS011;38032;53.326;6.472;2023-02-01T10:01:52;19.38;;;4.55;;
52015;SDS011;38032;53.326;6.472;2023-02-01T10:04:18;19.33;;;4.22;;
52015;SDS011;38032;53.326;6.472;2023-02-01T10:06:49;20.15;;;4.75;;
52015;SDS011;38032;53.326;6.472;2023-02-01T10:12:21;21.25;;;4.25;;
52015;SDS011;38032;53.326;6.472;2023-02-01T10:15:05;19.07;;;5.03;;
52015;SDS011;38032;53.326;6.472;2023-02-01T10:17:59;23.40;;;4.25;;
52015;SDS011;38032;53.326;6.472;2023-02-01T10:20:30;18.17;;;3.88;;
52015;SDS011;38032;53.326;6.472;2023-02-01T10:23:03;19.90;;;4.25;;
52015;SDS011;38032;53.326;6.472;2023-02-01T10:25:53;23.73;;;4.28;;
52015;SDS011;38032;53.326;6.472;2023-02-01T10:28:20;15.40;;;4.10;;
52015;SDS011;38032;53.326;6.472;2023-02-01T10:30:49;20.80;;;4.68;;
52015;SDS011;38032;53.326;6.472;2023-02-01T10:33:23;17.70;;;4.35;;
52015;SDS011;38032;53.326;6.472;2023-02-01T10:35:53;17.13;;;4.07;;
52015;SDS011;38032;53.326;6.472;2023-02-01T10:38:29;15.88;;;4.60;;
52015;SDS011;38032;53.326;6.472;2023-02-01T10:40:59;16.15;;;4.25;;
52015;SDS011;38032;53.326;6.472;2023-02-01T10:43:28;19.05;;;4.45;;
52015;SDS011;38032;53.326;6.472;2023-02-01T10:45:55;18.20;;;4.85;;
52015;SDS011;38032;53.326;6.472;2023-02-01T10:48:22;25.65;;;5.43;;
52015;SDS011;38032;53.326;6.472;2023-02-01T10:50:51;22.25;;;4.57;;
52015;SDS011;38032;53.326;6.472;2023-02-01T10:53:22;25.40;;;5.60;;
52015;SDS011;38032;53.326;6.472;2023-02-01T10:56:07;23.88;;;4.72;;
52015;SDS011;38032;53.326;6.472;2023-02-01T10:58:35;21.15;;;4.45;;
52015;SDS011;38032;53.326;6.472;2023-02-01T11:01:07;24.15;;;5.00;;
52015;SDS011;38032;53.326;6.472;2023-02-01T11:03:40;21.50;;;4.97;;
52015;SDS011;38032;53.326;6.472;2023-02-01T11:06:24;22.27;;;5.40;;
52015;SDS011;38032;53.326;6.472;2023-02-01T11:11:25;16.63;;;4.18;;
52015;SDS011;38032;53.326;6.472;2023-02-01T11:13:52;6.40;;;1.58;;
52015;SDS011;38032;53.326;6.472;2023-02-01T11:16:18;3.30;;;1.30;;
52015;SDS011;38032;53.326;6.472;2023-02-01T11:18:44;4.82;;;1.45;;
52015;SDS011;38032;53.326;6.472;2023-02-01T11:21:11;3.33;;;1.10;;
52015;SDS011;38032;53.326;6.472;2023-02-01T11:23:41;2.17;;;1.20;;
52015;SDS011;38032;53.326;6.472;2023-02-01T11:26:11;4.82;;;1.38;;
52015;SDS011;38032;53.326;6.472;2023-02-01T11:28:52;5.40;;;1.60;;
52015;SDS011;38032;53.326;6.472;2023-02-01T11:31:21;7.35;;;1.70;;
52015;SDS011;38032;53.326;6.472;2023-02-01T11:33:50;8.63;;;1.40;;
52015;SDS011;38032;53.326;6.472;2023-02-01T11:36:20;8.15;;;1.70;;
52015;SDS011;38032;53.326;6.472;2023-02-01T11:38:52;3.78;;;1.73;;
52015;SDS011;38032;53.326;6.472;2023-02-01T11:41:33;4.03;;;1.63;;
52015;SDS011;38032;53.326;6.472;2023-02-01T11:44:01;6.90;;;2.58;;
52015;SDS011;38032;53.326;6.472;2023-02-01T11:46:40;8.48;;;1.95;;
52015;SDS011;38032;53.326;6.472;2023-02-01T11:49:20;4.88;;;2.03;;
52015;SDS011;38032;53.326;6.472;2023-02-01T12:02:42;7.70;;;2.35;;
52015;SDS011;38032;53.326;6.472;2023-02-01T12:05:27;17.20;;;2.97;;
52015;SDS011;38032;53.326;6.472;2023-02-01T12:08:15;9.90;;;2.47;;
52015;SDS011;38032;53.326;6.472;2023-02-01T12:10:50;15.00;;;3.08;;
52015;SDS011;38032;53.326;6.472;2023-02-01T12:16:37;12.13;;;3.05;;
52015;SDS011;38032;53.326;6.472;2023-02-01T12:30:25;23.05;;;5.80;;
52015;SDS011;38032;53.326;6.472;2023-02-01T12:33:18;27.63;;;5.75;;
52015;SDS011;38032;53.326;6.472;2023-02-01T12:36:07;29.83;;;6.28;;
52015;SDS011;38032;53.326;6.472;2023-02-01T12:44:17;25.35;;;5.25;;
52015;SDS011;38032;53.326;6.472;2023-02-01T12:49:33;20.13;;;5.45;;
52015;SDS011;38032;53.326;6.472;2023-02-01T12:52:23;23.85;;;5.55;;
52015;SDS011;38032;53.326;6.472;2023-02-01T12:55:01;24.90;;;4.65;;
52015;SDS011;38032;53.326;6.472;2023-02-01T12:57:40;21.67;;;5.38;;
52015;SDS011;38032;53.326;6.472;2023-02-01T13:00:17;23.25;;;4.60;;
52015;SDS011;38032;53.326;6.472;2023-02-01T13:05:19;25.40;;;5.35;;
52015;SDS011;38032;53.326;6.472;2023-02-01T13:07:50;28.95;;;5.85;;
52015;SDS011;38032;53.326;6.472;2023-02-01T13:13:10;24.83;;;5.93;;
52015;SDS011;38032;53.326;6.472;2023-02-01T13:15:47;20.98;;;5.57;;
52015;SDS011;38032;53.326;6.472;2023-02-01T13:18:20;23.73;;;5.05;;
52015;SDS011;38032;53.326;6.472;2023-02-01T13:23:27;21.95;;;5.40;;
52015;SDS011;38032;53.326;6.472;2023-02-01T13:25:55;24.42;;;5.18;;
52015;SDS011;38032;53.326;6.472;2023-02-01T13:28:26;23.67;;;5.25;;
52015;SDS011;38032;53.326;6.472;2023-02-01T13:39:11;22.27;;;5.43;;
52015;SDS011;38032;53.326;6.472;2023-02-01T13:42:01;23.60;;;4.70;;
52015;SDS011;38032;53.326;6.472;2023-02-01T13:44:41;26.33;;;6.78;;
52015;SDS011;38032;53.326;6.472;2023-02-01T13:47:19;23.95;;;5.25;;
52015;SDS011;38032;53.326;6.472;2023-02-01T13:49:56;20.25;;;5.20;;
52015;SDS011;38032;53.326;6.472;2023-02-01T13:52:32;26.25;;;5.30;;
52015;SDS011;38032;53.326;6.472;2023-02-01T13:55:13;25.27;;;5.65;;
52015;SDS011;38032;53.326;6.472;2023-02-01T13:57:50;20.25;;;5.50;;
52015;SDS011;38032;53.326;6.472;2023-02-01T14:00:26;19.00;;;5.43;;
52015;SDS011;38032;53.326;6.472;2023-02-01T14:08:13;21.63;;;5.30;;
52015;SDS011;38032;53.326;6.472;2023-02-01T14:10:49;26.90;;;5.75;;
52015;SDS011;38032;53.326;6.472;2023-02-01T14:23:42;20.27;;;5.28;;
52015;SDS011;38032;53.326;6.472;2023-02-01T14:26:13;25.65;;;5.68;;
52015;SDS011;38032;53.326;6.472;2023-02-01T14:28:43;23.77;;;5.40;;
52015;SDS011;38032;53.326;6.472;2023-02-01T14:31:15;27.65;;;5.75;;
52015;SDS011;38032;53.326;6.472;2023-02-01T14:33:53;25.38;;;5.25;;
52015;SDS011;38032;53.326;6.472;2023-02-01T14:36:24;23.90;;;4.63;;
52015;SDS011;38032;53.326;6.472;2023-02-01T14:38:50;23.45;;;5.82;;
52015;SDS011;38032;53.326;6.472;2023-02-01T14:41:25;27.17;;;5.90;;
52015;SDS011;38032;53.326;6.472;2023-02-01T14:49:32;29.42;;;5.47;;
52015;SDS011;38032;53.326;6.472;2023-02-01T14:52:02;19.75;;;5.20;;
52015;SDS011;38032;53.326;6.472;2023-02-01T14:54:31;24.17;;;5.35;;
52015;SDS011;38032;53.326;6.472;2023-02-01T14:56:58;23.65;;;5.00;;
52015;SDS011;38032;53.326;6.472;2023-02-01T14:59:24;23.02;;;5.10;;
52015;SDS011;38032;53.326;6.472;2023-02-01T15:01:58;24.95;;;4.93;;
52015;SDS011;38032;53.326;6.472;2023-02-01T15:04:26;24.73;;;5.18;;
52015;SDS011;38032;53.326;6.472;2023-02-01T15:06:54;16.63;;;3.97;;
52015;SDS011;38032;53.326;6.472;2023-02-01T15:09:25;22.90;;;4.65;;
52015;SDS011;38032;53.326;6.472;2023-02-01T15:14:31;28.38;;;5.53;;
52015;SDS011;38032;53.326;6.472;2023-02-01T15:17:02;21.48;;;5.38;;
52015;SDS011;38032;53.326;6.472;2023-02-01T15:19:29;18.35;;;4.63;;
52015;SDS011;38032;53.326;6.472;2023-02-01T15:21:57;18.40;;;5.10;;
52015;SDS011;38032;53.326;6.472;2023-02-01T15:24:26;22.85;;;5.78;;
52015;SDS011;38032;53.326;6.472;2023-02-01T15:26:54;23.77;;;5.75;;
52015;SDS011;38032;53.326;6.472;2023-02-01T15:29:22;24.42;;;5.40;;
52015;SDS011;38032;53.326;6.472;2023-02-01T15:31:57;23.15;;;4.82;;
52015;SDS011;38032;53.326;6.472;2023-02-01T15:34:33;25.85;;;5.13;;
52015;SDS011;38032;53.326;6.472;2023-02-01T15:37:12;22.95;;;4.72;;
52015;SDS011;38032;53.326;6.472;2023-02-01T15:42:32;18.90;;;5.18;;
52015;SDS011;38032;53.326;6.472;2023-02-01T15:44:59;20.73;;;5.03;;
52015;SDS011;38032;53.326;6.472;2023-02-01T15:47:26;32.83;;;6.13;;
52015;SDS011;38032;53.326;6.472;2023-02-01T15:49:56;26.13;;;6.20;;
52015;SDS011;38032;53.326;6.472;2023-02-01T15:52:27;19.67;;;5.05;;
52015;SDS011;38032;53.326;6.472;2023-02-01T15:54:57;27.08;;;5.72;;
52015;SDS011;38032;53.326;6.472;2023-02-01T15:57:28;25.83;;;5.45;;
52015;SDS011;38032;53.326;6.472;2023-02-01T15:59:57;22.92;;;4.70;;
52015;SDS011;38032;53.326;6.472;2023-02-01T16:02:27;27.85;;;4.78;;
52015;SDS011;38032;53.326;6.472;2023-02-01T16:04:53;24.85;;;5.55;;
52015;SDS011;38032;53.326;6.472;2023-02-01T16:07:25;21.27;;;4.80;;
52015;SDS011;38032;53.326;6.472;2023-02-01T16:09:55;23.23;;;5.50;;
52015;SDS011;38032;53.326;6.472;2023-02-01T16:12:30;23.17;;;4.57;;
52015;SDS011;38032;53.326;6.472;2023-02-01T16:15:01;26.05;;;4.75;;
52015;SDS011;38032;53.326;6.472;2023-02-01T16:17:27;22.75;;;5.35;;
52015;SDS011;38032;53.326;6.472;2023-02-01T16:19:53;20.67;;;4.88;;
52015;SDS011;38032;53.326;6.472;2023-02-01T16:22:19;20.95;;;4.60;;
52015;SDS011;38032;53.326;6.472;2023-02-01T16:24:45;24.15;;;5.43;;
52015;SDS011;38032;53.326;6.472;2023-02-01T16:27:11;18.85;;;4.10;;
52015;SDS011;38032;53.326;6.472;2023-02-01T16:29:37;19.95;;;4.75;;
52015;SDS011;38032;53.326;6.472;2023-02-01T16:32:03;20.42;;;5.28;;
52015;SDS011;38032;53.326;6.472;2023-02-01T16:34:29;20.00;;;4.93;;
52015;SDS011;38032;53.326;6.472;2023-02-01T16:36:55;23.25;;;5.15;;
52015;SDS011;38032;53.326;6.472;2023-02-01T16:39:28;19.23;;;4.78;;